Time;durP1;ratioP1;P1;durP2;ratioP2;P2;SDS_P1;SDS_P2;PMS_P1;PMS_P2;Temp;Humidity;BMP_temperature;BMP_pressure;BME280_temperature;BME280_humidity;BME280_pressure;Samples;Min_cycle;Max_cycle;Signal;HPM_P1;HPM_P2
2024/01/13 00:02:11;;;;;;;2.00;1.80;;;2.10;99.90;1.10;100254;;;;549465;258;24134;-76
2024/01/13 00:04:39;;;;;;;1.87;1.77;;;2.10;99.90;1.20;100267;;;;549799;258;24118;-75
2024/01/13 00:07:07;;;;;;;7.80;3.50;;;2.10;99.90;1.20;100272;;;;549785;258;24118;-76
2024/01/13 00:09:35;;;;;;;5.53;3.17;;;2.20;99.90;1.20;100277;;;;549805;258;24193;-76
2024/01/13 00:12:07;;;;;;;6.53;3.37;;;2.20;99.90;1.20;100275;;;;550357;258;24131;-75
2024/01/13 00:14:31;;;;;;;5.77;3.27;;;2.20;99.90;1.30;100273;;;;549861;258;24132;-79
2024/01/13 00:16:59;;;;;;;9.30;3.37;;;2.20;99.90;1.30;100266;;;;550284;258;24156;-75
2024/01/13 00:19:27;;;;;;;3.93;3.30;;;2.30;99.90;1.30;100252;;;;550121;258;24118;-77
2024/01/13 00:21:54;;;;;;;9.27;3.53;;;2.30;99.90;1.30;100255;;;;550015;258;24193;-76
2024/01/13 00:24:22;;;;;;;2.37;2.03;;;2.30;99.90;1.40;100239;;;;550080;258;24140;-81
2024/01/13 00:26:50;;;;;;;2.50;2.30;;;2.40;99.90;1.40;100231;;;;549547;258;24134;-77
2024/01/13 00:29:18;;;;;;;2.73;1.60;;;2.40;99.90;1.40;100229;;;;549911;258;24136;-76
2024/01/13 00:31:46;;;;;;;8.50;2.70;;;2.40;99.90;1.40;100235;;;;549548;258;24122;-77
2024/01/13 00:34:14;;;;;;;2.63;2.43;;;2.40;99.90;1.40;100238;;;;549221;258;24110;-76
2024/01/13 00:36:42;;;;;;;6.13;2.77;;;2.40;99.90;1.40;100236;;;;549886;258;24174;-76
2024/01/13 00:39:10;;;;;;;4.87;2.13;;;2.40;99.90;1.40;100234;;;;549849;258;25164;-75
2024/01/13 00:41:38;;;;;;;5.13;3.03;;;2.40;99.90;1.40;100229;;;;550615;258;24163;-76
2024/01/13 00:44:06;;;;;;;6.00;3.75;;;2.40;99.90;1.50;100223;;;;545598;258;35513;-76
2024/01/13 00:46:34;;;;;;;3.07;2.30;;;2.40;99.90;1.50;100216;;;;549834;256;24173;-77
2024/01/13 00:49:02;;;;;;;3.97;2.67;;;2.50;99.90;1.50;100224;;;;551159;258;24249;-76
2024/01/13 00:51:32;;;;;;;5.97;3.20;;;2.50;99.90;1.50;100228;;;;550262;258;24121;-77
2024/01/13 00:53:59;;;;;;;4.10;2.50;;;2.50;99.90;1.50;100225;;;;550239;258;24126;-76
2024/01/13 00:56:27;;;;;;;3.50;2.60;;;2.50;99.90;1.50;100222;;;;549902;258;24130;-77
2024/01/13 00:58:55;;;;;;;8.30;3.37;;;2.50;99.90;1.50;100238;;;;549829;258;24171;-77
2024/01/13 01:01:23;;;;;;;6.63;3.23;;;2.40;99.90;1.40;100233;;;;549990;258;24129;-77
2024/01/13 01:03:51;;;;;;;5.77;3.17;;;2.40;99.90;1.40;100239;;;;549955;258;24148;-77
2024/01/13 01:06:22;;;;;;;8.13;2.73;;;2.40;99.90;1.40;100229;;;;550636;258;24114;-79
2024/01/13 01:08:51;;;;;;;4.07;3.23;;;2.40;99.90;1.40;100235;;;;550140;258;24139;-75
2024/01/13 01:11:15;;;;;;;2.50;1.90;;;2.40;99.90;1.40;100230;;;;558112;257;24127;-76
2024/01/13 01:13:43;;;;;;;8.37;3.50;;;2.40;99.90;1.40;100236;;;;550308;258;24119;-77
2024/01/13 01:16:11;;;;;;;4.07;2.47;;;2.40;99.90;1.40;100241;;;;550471;258;24134;-80
2024/01/13 01:18:40;;;;;;;9.30;3.13;;;2.40;99.90;1.40;100233;;;;550565;258;24120;-80
2024/01/13 01:21:08;;;;;;;2.10;1.80;;;2.40;99.90;1.40;100231;;;;549856;258;24205;-81
2024/01/13 01:23:36;;;;;;;3.30;2.30;;;2.40;99.90;1.40;100227;;;;549848;258;24170;-81
2024/01/13 01:26:04;;;;;;;3.63;2.27;;;2.40;99.90;1.40;100226;;;;549487;254;24118;-76
2024/01/13 01:28:32;;;;;;;4.23;2.97;;;2.40;99.90;1.40;100219;;;;550276;258;24128;-76
2024/01/13 01:31:00;;;;;;;2.37;2.10;;;2.40;99.90;1.40;100223;;;;549841;258;24156;-80
2024/01/13 01:33:27;;;;;;;2.00;1.90;;;2.40;99.90;1.40;100219;;;;549981;258;24177;-75
2024/01/13 01:35:55;;;;;;;6.77;2.60;;;2.40;99.90;1.40;100217;;;;550172;258;24121;-78
2024/01/13 01:38:23;;;;;;;4.47;2.30;;;2.40;99.90;1.40;100221;;;;549286;258;24107;-77
2024/01/13 01:40:57;;;;;;;6.23;2.23;;;2.40;99.90;1.40;100220;;;;549497;258;24132;-74
2024/01/13 01:43:22;;;;;;;2.57;2.23;;;2.30;99.90;1.40;100210;;;;545637;258;24145;-76
2024/01/13 01:45:57;;;;;;;7.47;2.87;;;2.30;99.90;1.40;100217;;;;549279;258;24136;-74
2024/01/13 01:48:30;;;;;;;3.17;2.30;;;2.30;99.90;1.30;100215;;;;549490;258;24239;-77
2024/01/13 01:50:55;;;;;;;6.00;2.90;;;2.30;99.90;1.30;100217;;;;549986;258;24129;-76
2024/01/13 01:53:24;;;;;;;2.50;2.30;;;2.30;99.90;1.30;100214;;;;550661;258;24191;-77
2024/01/13 01:55:52;;;;;;;1.53;1.40;;;2.30;99.90;1.30;100207;;;;550271;258;24179;-76
2024/01/13 01:58:23;;;;;;;5.63;2.23;;;2.30;99.90;1.30;100192;;;;549956;256;24125;-77
2024/01/13 02:00:48;;;;;;;4.03;2.73;;;2.30;99.90;1.30;100194;;;;550717;258;24166;-76
2024/01/13 02:03:16;;;;;;;1.80;1.70;;;2.30;99.90;1.30;100192;;;;558508;257;24169;-77
2024/01/13 02:05:44;;;;;;;8.97;2.30;;;2.30;99.90;1.30;100190;;;;550378;258;24151;-76
2024/01/13 02:08:12;;;;;;;3.53;2.47;;;2.30;99.90;1.30;100192;;;;558007;256;24130;-77
2024/01/13 02:10:40;;;;;;;2.17;1.97;;;2.30;99.90;1.30;100194;;;;549818;258;24258;-75
2024/01/13 02:13:07;;;;;;;8.32;3.80;;;2.30;99.90;1.30;100194;;;;544915;258;35493;-75
2024/01/13 02:15:35;;;;;;;8.97;3.67;;;2.30;99.90;1.30;100190;;;;549945;258;24129;-76
2024/01/13 02:18:04;;;;;;;4.03;2.13;;;2.20;99.90;1.30;100201;;;;549548;258;24135;-76
2024/01/13 02:20:32;;;;;;;8.40;2.60;;;2.20;99.90;1.20;100196;;;;549556;258;24140;-76
2024/01/13 02:23:00;;;;;;;4.53;2.00;;;2.20;99.90;1.20;100196;;;;549866;258;24123;-75
2024/01/13 02:25:28;;;;;;;7.30;2.43;;;2.20;99.90;1.20;100190;;;;549879;258;24119;-76
2024/01/13 02:27:56;;;;;;;1.87;1.60;;;2.20;99.90;1.30;100202;;;;549706;258;24158;-77
2024/01/13 02:30:24;;;;;;;2.40;2.27;;;2.20;99.90;1.30;100206;;;;549518;258;24111;-75
2024/01/13 02:32:53;;;;;;;6.43;2.83;;;2.20;99.90;1.30;100202;;;;549787;258;24141;-75
2024/01/13 02:35:21;;;;;;;8.80;2.57;;;2.20;99.90;1.30;100200;;;;549441;258;24116;-77
2024/01/13 02:37:53;;;;;;;2.80;1.60;;;2.30;99.90;1.30;100207;;;;549300;258;24119;-77
2024/01/13 02:40:17;;;;;;;4.33;2.67;;;2.30;99.90;1.30;100212;;;;549550;255;24149;-76
2024/01/13 02:42:45;;;;;;;4.80;1.97;;;2.30;99.90;1.30;100213;;;;549515;258;25190;-76
2024/01/13 02:45:13;;;;;;;9.63;2.23;;;2.30;99.90;1.30;100204;;;;549547;258;24106;-76
2024/01/13 02:47:54;;;;;;;3.80;1.87;;;2.30;99.90;1.30;100210;;;;549584;258;24190;-76
2024/01/13 02:50:22;;;;;;;3.50;2.77;;;2.30;99.90;1.30;100217;;;;549975;258;24174;-77
2024/01/13 02:52:49;;;;;;;4.60;3.07;;;2.30;99.90;1.30;100208;;;;549323;258;24110;-79
2024/01/13 02:55:17;;;;;;;4.23;2.37;;;2.30;99.90;1.30;100213;;;;549663;258;24177;-76
2024/01/13 02:57:45;;;;;;;6.30;2.30;;;2.30;99.90;1.30;100205;;;;550157;258;24130;-76
2024/01/13 03:00:16;;;;;;;3.37;2.23;;;2.30;99.90;1.30;100206;;;;549999;258;24117;-78
2024/01/13 03:02:41;;;;;;;4.23;2.80;;;2.30;99.90;1.30;100196;;;;557971;256;24182;-77
2024/01/13 03:05:10;;;;;;;12.67;3.00;;;2.30;99.90;1.30;100189;;;;550072;258;24177;-76
2024/01/13 03:07:38;;;;;;;2.83;1.97;;;2.30;99.90;1.30;100188;;;;549670;258;24160;-76
2024/01/13 03:10:10;;;;;;;2.77;1.67;;;2.30;99.90;1.30;100181;;;;549900;257;24150;-77
2024/01/13 03:12:34;;;;;;;5.37;2.50;;;2.30;99.90;1.30;100165;;;;550529;258;24214;-75
2024/01/13 03:15:05;;;;;;;3.47;2.30;;;2.30;99.90;1.30;100165;;;;550547;258;24119;-76
2024/01/13 03:17:31;;;;;;;4.83;2.90;;;2.30;99.90;1.30;100162;;;;549980;258;24131;-75
2024/01/13 03:19:59;;;;;;;4.73;2.80;;;2.30;99.90;1.30;100165;;;;550348;258;24152;-76
2024/01/13 03:22:27;;;;;;;6.20;3.80;;;2.30;99.90;1.30;100161;;;;545003;258;35471;-74
2024/01/13 03:24:56;;;;;;;3.33;3.00;;;2.30;99.90;1.40;100160;;;;549876;258;24193;-76
2024/01/13 03:27:22;;;;;;;8.23;2.77;;;2.30;99.90;1.40;100155;;;;550788;258;24113;-81
2024/01/13 03:29:50;;;;;;;5.97;3.43;;;2.30;99.90;1.30;100157;;;;550410;258;24113;-80
2024/01/13 03:32:18;;;;;;;4.93;3.30;;;2.30;99.90;1.30;100154;;;;550589;258;24126;-77
2024/01/13 03:34:46;;;;;;;6.90;2.83;;;2.30;99.90;1.30;100157;;;;550578;258;24114;-80
2024/01/13 03:37:14;;;;;;;2.20;1.87;;;2.30;99.90;1.40;100157;;;;550928;258;24103;-79
2024/01/13 03:39:42;;;;;;;4.77;2.27;;;2.40;99.90;1.40;100158;;;;550587;258;24117;-78
2024/01/13 03:42:13;;;;;;;2.90;2.47;;;2.40;99.90;1.40;100158;;;;550838;258;24163;-79
2024/01/13 03:44:38;;;;;;;6.00;3.47;;;2.40;99.90;1.40;100149;;;;558586;257;24152;-79
2024/01/13 03:47:06;;;;;;;5.23;2.17;;;2.40;99.90;1.40;100151;;;;550663;258;24107;-80
2024/01/13 03:49:34;;;;;;;5.50;3.27;;;2.30;99.90;1.30;100143;;;;550682;258;24192;-79
2024/01/13 03:52:06;;;;;;;3.43;2.37;;;2.30;99.90;1.30;100135;;;;550630;258;24182;-78
2024/01/13 03:54:30;;;;;;;2.57;2.27;;;2.30;99.90;1.30;100135;;;;549851;258;24165;-82
2024/01/13 03:56:58;;;;;;;10.70;3.13;;;2.30;99.90;1.30;100135;;;;550236;258;24132;-80
2024/01/13 03:59:26;;;;;;;5.10;2.77;;;2.30;99.90;1.30;100128;;;;550165;258;24114;-81
2024/01/13 04:01:54;;;;;;;7.93;2.67;;;2.30;99.90;1.30;100127;;;;550313;258;24205;-79
2024/01/13 04:04:22;;;;;;;4.57;2.90;;;2.30;99.90;1.30;100122;;;;550232;258;24110;-76
2024/01/13 04:06:50;;;;;;;4.33;2.47;;;2.30;99.90;1.30;100120;;;;550136;258;24169;-81
2024/01/13 04:09:17;;;;;;;2.60;2.40;;;2.30;99.90;1.30;100124;;;;550229;258;24161;-79
2024/01/13 04:11:45;;;;;;;3.43;2.70;;;2.30;99.90;1.30;100126;;;;550385;258;24126;-78
2024/01/13 04:14:13;;;;;;;5.50;3.50;;;2.20;99.90;1.30;100125;;;;550230;258;24134;-77
2024/01/13 04:16:41;;;;;;;6.80;3.07;;;2.30;99.90;1.30;100127;;;;549999;258;24131;-80
2024/01/13 04:19:10;;;;;;;5.10;3.53;;;2.30;99.90;1.30;100120;;;;550058;258;24145;-76
2024/01/13 04:21:38;;;;;;;3.83;2.07;;;2.20;99.90;1.30;100117;;;;550321;256;24134;-79
2024/01/13 04:24:06;;;;;;;3.63;3.07;;;2.20;99.90;1.30;100114;;;;550900;258;24131;-79
2024/01/13 04:26:37;;;;;;;3.97;2.67;;;2.30;99.90;1.30;100112;;;;550396;258;24149;-80
2024/01/13 04:29:01;;;;;;;5.97;3.07;;;2.20;99.90;1.30;100101;;;;549914;258;24129;-78
2024/01/13 04:31:29;;;;;;;4.40;3.10;;;2.20;99.90;1.30;100103;;;;549977;258;24115;-77
2024/01/13 04:33:57;;;;;;;13.50;5.40;;;2.30;99.90;1.30;100099;;;;544996;258;35565;-79
2024/01/13 04:36:25;;;;;;;6.13;4.33;;;2.30;99.90;1.30;100099;;;;549863;258;24219;-75
2024/01/13 04:38:53;;;;;;;11.10;3.13;;;2.20;99.90;1.30;100094;;;;549978;258;24240;-76
2024/01/13 04:41:21;;;;;;;4.17;3.00;;;2.20;99.90;1.30;100093;;;;549554;258;24208;-76
2024/01/13 04:43:49;;;;;;;8.03;2.63;;;2.30;99.90;1.30;100093;;;;549973;258;24118;-76
2024/01/13 04:46:18;;;;;;;5.93;2.60;;;2.20;99.90;1.30;100086;;;;549929;258;24121;-75
2024/01/13 04:48:45;;;;;;;9.63;4.75;;;2.20;99.90;1.30;100084;;;;545132;258;35551;-76
2024/01/13 04:51:13;;;;;;;9.30;4.80;;;2.30;99.90;1.30;100077;;;;545179;258;35433;-76
2024/01/13 04:53:41;;;;;;;5.13;3.47;;;2.30;99.90;1.30;100078;;;;549611;258;24244;-77
2024/01/13 04:56:09;;;;;;;4.70;3.77;;;2.30;99.90;1.30;100082;;;;550083;258;24105;-78
2024/01/13 04:58:37;;;;;;;9.00;3.70;;;2.30;99.90;1.30;100090;;;;549951;258;24148;-78
2024/01/13 05:01:05;;;;;;;6.03;3.77;;;2.30;99.90;1.20;100083;;;;550176;258;24124;-75
2024/01/13 05:03:33;;;;;;;5.37;3.13;;;2.20;99.90;1.30;100089;;;;550059;258;24175;-77
2024/01/13 05:06:04;;;;;;;6.00;2.87;;;2.20;99.90;1.30;100103;;;;549902;258;24189;-76
2024/01/13 05:08:29;;;;;;;5.47;3.13;;;2.20;99.90;1.20;100097;;;;549683;258;24152;-76
2024/01/13 05:10:57;;;;;;;7.00;3.47;;;2.20;99.90;1.20;100091;;;;549797;258;25220;-76
2024/01/13 05:13:24;;;;;;;5.00;3.70;;;2.20;99.90;1.20;100097;;;;557653;254;24140;-77
2024/01/13 05:15:52;;;;;;;4.73;2.33;;;2.20;99.90;1.20;100097;;;;549401;258;24169;-77
2024/01/13 05:18:21;;;;;;;4.53;3.33;;;2.20;99.90;1.30;100094;;;;549730;258;24171;-77
2024/01/13 05:20:49;;;;;;;5.27;2.93;;;2.20;99.90;1.30;100080;;;;549540;258;24132;-76
2024/01/13 05:23:17;;;;;;;8.03;3.87;;;2.30;99.90;1.20;100088;;;;549918;258;24191;-76
2024/01/13 05:25:45;;;;;;;5.30;3.40;;;2.20;99.90;1.30;100086;;;;549941;258;24166;-75
2024/01/13 05:28:13;;;;;;;5.83;2.87;;;2.20;99.90;1.30;100081;;;;549563;258;24123;-75
2024/01/13 05:30:41;;;;;;;6.73;3.87;;;2.20;99.90;1.30;100081;;;;549857;258;24188;-75
2024/01/13 05:33:08;;;;;;;5.60;3.90;;;2.20;99.90;1.30;100076;;;;550129;256;24117;-76
2024/01/13 05:35:36;;;;;;;9.77;3.93;;;2.20;99.90;1.20;100074;;;;551098;258;24105;-76
2024/01/13 05:38:04;;;;;;;5.70;3.13;;;2.20;99.90;1.30;100068;;;;550822;258;24117;-78
2024/01/13 05:40:32;;;;;;;4.97;2.93;;;2.20;99.90;1.30;100064;;;;550502;258;24214;-75
2024/01/13 05:43:00;;;;;;;5.50;3.90;;;2.20;99.90;1.30;100056;;;;550617;258;24114;-76
2024/01/13 05:45:28;;;;;;;5.50;3.20;;;2.20;99.90;1.30;100060;;;;550335;258;24157;-77
2024/01/13 05:47:56;;;;;;;5.00;3.23;;;2.20;99.90;1.30;100054;;;;550441;258;24172;-76
2024/01/13 05:50:24;;;;;;;5.63;3.37;;;2.30;99.90;1.30;100047;;;;550877;258;24126;-77
2024/01/13 05:52:52;;;;;;;10.20;4.27;;;2.20;99.90;1.30;100046;;;;551006;258;24136;-76
2024/01/13 05:55:20;;;;;;;6.83;3.97;;;2.20;99.90;1.20;100049;;;;550425;258;24141;-78
2024/01/13 05:57:47;;;;;;;7.13;4.13;;;2.20;99.90;1.30;100058;;;;550137;258;24221;-77
2024/01/13 06:00:15;;;;;;;7.87;3.63;;;2.20;99.90;1.20;100045;;;;550258;258;24126;-75
2024/01/13 06:02:44;;;;;;;8.00;3.50;;;2.20;99.90;1.30;100042;;;;557904;256;24167;-75
2024/01/13 06:05:11;;;;;;;10.00;4.13;;;2.30;99.90;1.30;100034;;;;549498;258;24124;-77
2024/01/13 06:07:40;;;;;;;7.70;4.03;;;2.30;99.90;1.30;100035;;;;549672;258;24110;-75
2024/01/13 06:10:08;;;;;;;8.17;3.73;;;2.30;99.90;1.30;100033;;;;549423;258;24133;-77
2024/01/13 06:12:37;;;;;;;5.43;3.53;;;2.30;99.90;1.30;100034;;;;557543;256;24119;-75
2024/01/13 06:15:05;;;;;;;3.20;2.90;;;2.30;99.90;1.30;100033;;;;549790;258;24141;-75
2024/01/13 06:17:33;;;;;;;11.47;4.10;;;2.30;99.90;1.30;100033;;;;557901;256;25153;-76
2024/01/13 06:20:00;;;;;;;9.00;4.03;;;2.30;99.90;1.30;100025;;;;549897;258;24158;-78
2024/01/13 06:22:28;;;;;;;3.30;3.00;;;2.20;99.90;1.30;100017;;;;549916;258;24110;-78
2024/01/13 06:24:56;;;;;;;4.73;3.30;;;2.20;99.90;1.20;100017;;;;549568;258;24139;-77
2024/01/13 06:27:24;;;;;;;5.30;4.20;;;2.20;99.90;1.20;100017;;;;549517;258;24126;-75
2024/01/13 06:29:52;;;;;;;5.10;4.30;;;2.20;99.90;1.10;100025;;;;549573;258;24110;-76
2024/01/13 06:32:21;;;;;;;7.60;3.87;;;2.10;99.90;1.10;100027;;;;549576;258;24122;-79
2024/01/13 06:34:49;;;;;;;5.47;3.53;;;2.00;99.90;1.00;100028;;;;549391;258;24164;-75
2024/01/13 06:37:17;;;;;;;4.20;3.80;;;2.00;99.90;1.00;100020;;;;549249;258;24145;-76
2024/01/13 06:39:45;;;;;;;5.60;4.03;;;2.00;99.90;1.00;100019;;;;549153;258;24111;-75
2024/01/13 06:42:13;;;;;;;7.50;5.17;;;2.00;99.90;0.90;100016;;;;549554;258;24177;-76
2024/01/13 06:44:41;;;;;;;12.03;5.23;;;2.00;99.90;0.90;100017;;;;549624;256;24172;-76
2024/01/13 06:47:09;;;;;;;7.80;3.33;;;1.90;99.90;0.90;100016;;;;551051;258;24109;-79
2024/01/13 06:49:37;;;;;;;9.30;4.67;;;1.90;99.90;0.90;100009;;;;551061;258;24103;-76
2024/01/13 06:52:08;;;;;;;5.97;4.13;;;1.90;99.90;0.80;100013;;;;551109;258;24127;-78
2024/01/13 06:54:33;;;;;;;4.30;3.37;;;1.80;99.90;0.80;100003;;;;550648;258;24122;-79
2024/01/13 06:57:01;;;;;;;5.80;3.33;;;1.80;99.90;0.70;99999;;;;550618;258;24217;-81
2024/01/13 06:59:29;;;;;;;5.87;4.07;;;1.70;99.90;0.70;99994;;;;550874;258;24106;-81
2024/01/13 07:01:57;;;;;;;8.67;3.33;;;1.70;99.90;0.70;99999;;;;550796;258;24130;-80
2024/01/13 07:04:27;;;;;;;5.43;4.23;;;1.70;99.90;0.70;99990;;;;558412;255;24158;-78
2024/01/13 07:06:53;;;;;;;4.20;3.40;;;1.70;99.90;0.70;99994;;;;558255;256;24125;-76
2024/01/13 07:09:22;;;;;;;5.57;3.70;;;1.70;99.90;0.80;99991;;;;549957;258;24150;-78
2024/01/13 07:11:50;;;;;;;6.73;3.70;;;1.80;99.90;0.80;99975;;;;550133;258;24125;-81
2024/01/13 07:14:18;;;;;;;6.73;3.33;;;1.80;99.90;0.80;99972;;;;549947;258;24225;-76
2024/01/13 07:16:45;;;;;;;3.43;2.77;;;1.80;99.90;0.80;99969;;;;549883;258;24120;-81
2024/01/13 07:19:15;;;;;;;5.73;3.07;;;1.80;99.90;0.80;99967;;;;550077;258;24133;-80
2024/01/13 07:21:45;;;;;;;5.33;3.10;;;1.80;99.90;0.80;99971;;;;549736;258;24157;-82
2024/01/13 07:24:11;;;;;;;4.97;3.70;;;1.80;99.90;0.80;99976;;;;549970;258;24155;-80
2024/01/13 07:26:41;;;;;;;6.70;3.80;;;1.80;99.90;0.80;99963;;;;550015;258;24152;-82
2024/01/13 07:29:09;;;;;;;5.67;3.73;;;1.80;99.90;0.80;99951;;;;550377;258;24127;-80
2024/01/13 07:31:37;;;;;;;5.80;3.80;;;1.80;99.90;0.80;99954;;;;550284;258;24130;-77
2024/01/13 07:34:09;;;;;;;4.23;3.57;;;1.90;99.90;0.80;99947;;;;549998;258;24121;-76
2024/01/13 07:36:34;;;;;;;5.10;3.77;;;1.80;99.90;0.80;99950;;;;557660;257;24134;-76
2024/01/13 07:39:02;;;;;;;10.43;4.50;;;1.80;99.90;0.80;99938;;;;549943;258;25254;-78
2024/01/13 07:41:30;;;;;;;11.83;4.27;;;1.80;99.90;0.90;99949;;;;549791;258;24150;-80
2024/01/13 07:44:01;;;;;;;6.73;4.80;;;1.90;99.90;0.90;99952;;;;549832;258;24170;-77
2024/01/13 07:46:26;;;;;;;6.37;4.30;;;1.90;99.90;0.90;99961;;;;545198;258;24158;-77
2024/01/13 07:48:54;;;;;;;8.70;4.57;;;1.90;99.90;0.90;99961;;;;549244;258;24122;-78
2024/01/13 07:51:21;;;;;;;3.37;2.57;;;1.90;99.90;0.90;99962;;;;549239;258;24130;-77
2024/01/13 07:53:49;;;;;;;4.13;3.43;;;1.90;99.90;0.90;99949;;;;549298;258;24134;-75
2024/01/13 07:56:20;;;;;;;8.43;4.50;;;1.90;99.90;0.90;99941;;;;549794;256;24114;-77
2024/01/13 07:58:46;;;;;;;6.27;3.93;;;1.90;99.90;0.90;99939;;;;550763;258;24196;-79
2024/01/13 08:01:13;;;;;;;3.87;3.33;;;1.90;99.90;1.00;99932;;;;550383;258;24118;-79
2024/01/13 08:03:41;;;;;;;3.70;3.37;;;2.00;99.90;1.00;99931;;;;550508;258;25157;-80
2024/01/13 08:06:09;;;;;;;6.27;3.43;;;2.00;99.90;1.00;99931;;;;550473;258;24160;-76
2024/01/13 08:08:37;;;;;;;5.17;3.00;;;2.00;99.90;1.00;99927;;;;550643;258;24122;-78
2024/01/13 08:11:05;;;;;;;2.90;2.33;;;2.00;99.90;1.00;99922;;;;550439;258;24126;-76
2024/01/13 08:13:33;;;;;;;3.10;2.67;;;2.00;99.90;1.00;99921;;;;550106;258;24120;-75
2024/01/13 08:16:02;;;;;;;2.90;2.43;;;2.00;99.90;1.00;99912;;;;549923;258;24128;-75
2024/01/13 08:18:30;;;;;;;3.37;3.00;;;2.00;99.90;1.00;99897;;;;549543;258;24154;-76
2024/01/13 08:20:58;;;;;;;3.53;2.93;;;2.00;99.90;1.00;99884;;;;549449;258;24170;-76
2024/01/13 08:23:26;;;;;;;5.23;2.97;;;2.00;99.90;1.00;99885;;;;549748;258;24189;-77
2024/01/13 08:25:54;;;;;;;5.13;3.10;;;2.00;99.90;1.00;99876;;;;549884;254;24111;-77
2024/01/13 08:28:21;;;;;;;3.00;2.77;;;2.00;99.90;0.90;99873;;;;549860;258;24123;-76
2024/01/13 08:30:50;;;;;;;4.73;2.87;;;1.90;99.90;0.90;99869;;;;549926;258;24118;-76
2024/01/13 08:33:18;;;;;;;2.77;1.93;;;1.90;99.90;0.90;99870;;;;549834;258;24183;-79
2024/01/13 08:35:47;;;;;;;4.00;2.90;;;1.90;99.90;0.90;99872;;;;549694;258;24206;-77
2024/01/13 08:38:15;;;;;;;4.70;3.27;;;1.80;99.90;0.90;99862;;;;549640;258;24158;-76
2024/01/13 08:40:46;;;;;;;3.37;2.60;;;1.80;99.90;0.90;99860;;;;549687;258;24180;-78
2024/01/13 08:43:15;;;;;;;4.00;3.40;;;1.90;99.90;0.90;99847;;;;549511;258;24126;-76
2024/01/13 08:45:40;;;;;;;3.70;2.80;;;1.90;99.90;1.00;99841;;;;545564;258;24115;-75
2024/01/13 08:48:08;;;;;;;4.57;3.07;;;2.00;99.90;1.00;99847;;;;549624;258;24133;-75
2024/01/13 08:50:36;;;;;;;5.60;3.03;;;2.00;99.90;1.10;99844;;;;549210;258;24120;-76
2024/01/13 08:53:05;;;;;;;3.73;3.33;;;2.10;99.90;1.20;99835;;;;549340;258;24139;-78
2024/01/13 08:55:32;;;;;;;5.17;3.03;;;2.10;99.90;1.20;99825;;;;549416;258;24125;-75
2024/01/13 08:58:00;;;;;;;3.90;2.53;;;2.20;99.90;1.30;99831;;;;549438;258;24159;-76
2024/01/13 09:00:28;;;;;;;2.37;2.17;;;2.30;99.90;1.30;99828;;;;549473;258;24152;-76
2024/01/13 09:02:56;;;;;;;2.30;2.03;;;2.30;99.90;1.40;99833;;;;549398;258;24201;-75
2024/01/13 09:05:25;;;;;;;2.93;2.10;;;2.40;99.90;1.40;99825;;;;549463;258;24155;-76
2024/01/13 09:07:57;;;;;;;1.63;1.53;;;2.40;99.90;1.50;99827;;;;549729;256;24129;-75
2024/01/13 09:10:20;;;;;;;2.50;2.13;;;2.50;99.90;1.60;99822;;;;550422;258;24120;-75
2024/01/13 09:12:48;;;;;;;2.17;1.73;;;2.60;99.90;1.60;99803;;;;550532;258;24098;-76
2024/01/13 09:15:16;;;;;;;4.70;2.40;;;5.00;99.90;1.70;99809;;;;545753;258;35379;-76
2024/01/13 09:17:45;;;;;;;3.45;2.20;;;2.70;99.90;1.70;99806;;;;545642;258;35387;-76
2024/01/13 09:20:13;;;;;;;3.77;2.70;;;2.70;99.90;1.70;99803;;;;545138;258;35424;-76
2024/01/13 09:22:41;;;;;;;2.23;2.03;;;2.70;99.90;1.70;99770;;;;549893;258;24130;-75
2024/01/13 09:25:09;;;;;;;5.27;2.00;;;2.70;99.90;1.60;99765;;;;549735;258;24157;-76
2024/01/13 09:27:38;;;;;;;2.87;1.63;;;2.60;99.90;1.70;99761;;;;549500;258;24223;-75
2024/01/13 09:30:07;;;;;;;3.80;1.17;;;2.70;99.90;1.80;99749;;;;549437;258;24110;-75
2024/01/13 09:32:34;;;;;;;2.00;1.73;;;2.80;99.90;2.00;99754;;;;557795;256;24143;-76
2024/01/13 09:35:03;;;;;;;2.03;1.93;;;2.90;99.90;2.10;99743;;;;550020;258;24119;-76
2024/01/13 09:37:30;;;;;;;2.90;1.67;;;3.10;99.90;2.30;99737;;;;557710;256;24135;-76
2024/01/13 09:39:58;;;;;;;2.63;1.90;;;3.20;99.90;2.40;99723;;;;549425;258;24122;-77
2024/01/13 09:43:00;;;;;;;2.33;1.70;;;3.30;99.90;2.40;99720;;;;549304;258;24103;-74
2024/01/13 09:45:27;;;;;;;5.27;2.10;;;3.40;99.90;2.50;99727;;;;543667;260;25209;-74
2024/01/13 09:47:56;;;;;;;4.03;2.17;;;3.50;99.90;2.60;99720;;;;569460;252;24129;-76
2024/01/13 09:50:24;;;;;;;2.73;2.33;;;3.60;99.90;2.70;99713;;;;565870;248;24144;-76
2024/01/13 09:52:52;;;;;;;1.50;1.40;;;3.60;99.90;2.70;99705;;;;568492;248;24079;-75
2024/01/13 09:55:21;;;;;;;1.87;1.77;;;3.70;99.90;2.70;99701;;;;568506;248;24132;-76
2024/01/13 09:57:49;;;;;;;2.77;1.90;;;3.70;99.90;2.70;99689;;;;577373;248;24173;-76
2024/01/13 10:00:17;;;;;;;3.23;1.70;;;3.80;99.90;2.80;99686;;;;568806;248;25167;-76
2024/01/13 10:02:46;;;;;;;5.10;2.23;;;3.80;99.90;2.90;99679;;;;568936;248;25186;-75
2024/01/13 10:05:14;;;;;;;4.13;1.93;;;3.80;99.90;2.90;99685;;;;568865;248;24142;-77
2024/01/13 10:07:42;;;;;;;1.60;1.47;;;3.90;99.90;2.90;99686;;;;569058;248;24092;-81
2024/01/13 10:10:12;;;;;;;2.10;1.80;;;3.90;99.90;2.90;99676;;;;568828;248;24117;-81
2024/01/13 10:12:41;;;;;;;1.37;1.27;;;3.90;99.90;2.90;99678;;;;568972;248;24096;-80
2024/01/13 10:15:12;;;;;;;5.37;2.07;;;3.90;99.90;3.00;99677;;;;568627;248;24128;-78
2024/01/13 10:17:40;;;;;;;6.80;2.67;;;3.90;99.90;3.10;99677;;;;568940;248;24154;-76
2024/01/13 10:20:11;;;;;;;2.67;1.93;;;4.00;99.90;3.10;99675;;;;578264;247;24143;-76
2024/01/13 10:22:42;;;;;;;2.53;1.83;;;4.10;99.90;3.20;99668;;;;578490;247;24193;-75
2024/01/13 10:25:09;;;;;;;1.40;1.30;;;4.10;99.90;3.20;99684;;;;569212;248;24109;-74
2024/01/13 10:27:42;;;;;;;7.23;2.00;;;4.10;99.90;3.20;99666;;;;569446;248;24098;-78
2024/01/13 10:30:08;;;;;;;4.93;2.07;;;4.20;99.90;3.20;99658;;;;578057;248;24153;-76
2024/01/13 10:32:36;;;;;;;5.00;2.47;;;4.20;99.90;3.30;99646;;;;569375;248;24196;-75
2024/01/13 10:35:04;;;;;;;3.73;3.00;;;4.20;99.90;3.40;99653;;;;569529;248;24083;-75
2024/01/13 10:37:32;;;;;;;1.87;1.50;;;4.30;99.90;3.40;99641;;;;569414;248;24084;-75
2024/01/13 10:40:00;;;;;;;3.37;1.70;;;4.30;99.90;3.30;99632;;;;569320;248;24102;-76
2024/01/13 10:42:28;;;;;;;4.80;3.40;;;4.20;99.90;3.20;99626;;;;564718;248;35215;-76
2024/01/13 10:44:58;;;;;;;3.70;3.10;;;3.30;99.90;3.10;99614;;;;563765;248;35296;-76
2024/01/13 10:47:33;;;;;;;2.70;2.30;;;4.10;99.90;3.10;99616;;;;569222;248;24098;-75
2024/01/13 10:50:00;;;;;;;3.97;2.60;;;4.10;99.90;3.10;99616;;;;571356;248;24100;-74
2024/01/13 10:52:33;;;;;;;2.47;2.13;;;4.10;99.90;3.10;99616;;;;570107;248;24083;-80
2024/01/13 10:55:04;;;;;;;2.30;2.10;;;4.10;99.90;3.10;99617;;;;569121;248;24189;-76
2024/01/13 10:57:33;;;;;;;11.53;4.60;;;4.10;99.90;3.20;99608;;;;563296;248;35260;-77
2024/01/13 10:59:58;;;;;;;5.23;3.73;;;4.10;99.90;3.20;99606;;;;568633;248;27792;-77
2024/01/13 11:02:29;;;;;;;3.30;2.67;;;4.10;99.90;3.20;99599;;;;568653;248;25204;-75
2024/01/13 11:04:54;;;;;;;3.23;2.57;;;4.10;99.90;3.10;99593;;;;568527;248;24121;-74
2024/01/13 11:07:23;;;;;;;2.47;2.20;;;4.00;99.90;3.00;99584;;;;568711;248;24145;-75
2024/01/13 11:09:50;;;;;;;2.80;2.60;;;4.00;99.90;3.00;99563;;;;568735;248;24171;-75
2024/01/13 11:12:21;;;;;;;4.13;2.27;;;3.90;99.90;3.00;99560;;;;569098;248;24140;-74
2024/01/13 11:14:57;;;;;;;3.10;2.13;;;3.90;99.90;3.10;99547;;;;571988;248;24126;-77
2024/01/13 11:17:29;;;;;;;3.77;2.40;;;4.10;99.90;3.20;99537;;;;577743;248;24103;-76
2024/01/13 11:19:56;;;;;;;8.23;3.60;;;4.10;99.90;3.30;99526;;;;569042;248;24097;-76
2024/01/13 11:22:34;;;;;;;5.10;3.03;;;4.20;99.90;3.30;99513;;;;569043;248;24179;-78
2024/01/13 11:25:01;;;;;;;5.03;3.90;;;4.20;99.90;3.30;99508;;;;568362;248;24119;-76
2024/01/13 11:27:27;;;;;;;5.23;3.00;;;4.20;99.90;3.30;99494;;;;569034;248;24198;-76
2024/01/13 11:29:57;;;;;;;3.33;2.10;;;4.20;99.90;3.30;99493;;;;569844;248;24092;-77
2024/01/13 11:32:30;;;;;;;5.67;3.10;;;4.20;99.90;3.30;99488;;;;570507;248;24144;-78
2024/01/13 11:34:55;;;;;;;5.13;3.23;;;4.20;99.90;3.20;99486;;;;569364;248;24083;-75